Time;durP1;ratioP1;P1;durP2;ratioP2;P2;SDS_P1;SDS_P2;PMS_P1;PMS_P2;Temp;Humidity;BMP_temperature;BMP_pressure;BME280_temperature;BME280_humidity;BME280_pressure;Samples;Min_cycle;Max_cycle;Signal;HPM_P1;HPM_P2
2022/01/21 00:01:23;;;;;;;14.98;1.58;;;;;;;2.90;100.00;103567.28;5103768;28;20332;-81
2022/01/21 00:03:49;;;;;;;11.32;1.75;;;;;;;2.82;100.00;103564.91;5088084;28;20031;-82
2022/01/21 00:06:14;;;;;;;14.20;2.47;;;;;;;2.77;100.00;103576.56;5101176;28;20040;-81
2022/01/21 00:08:42;;;;;;;20.10;2.35;;;;;;;2.76;100.00;103566.94;5106778;28;20035;-82
2022/01/21 00:11:08;;;;;;;14.43;1.85;;;;;;;2.73;100.00;103574.47;5100050;28;20034;-81
2022/01/21 00:13:34;;;;;;;13.20;1.52;;;;;;;2.66;100.00;103572.97;5100090;28;20053;-81
2022/01/21 00:16:01;;;;;;;25.98;2.40;;;;;;;2.57;100.00;103584.22;5086587;28;20016;-80
2022/01/21 00:18:27;;;;;;;17.45;2.25;;;;;;;2.49;100.00;103568.78;5107625;28;20004;-81
2022/01/21 00:31:48;;;;;;;21.02;1.88;;;;;;;2.21;100.00;103578.25;5101066;28;20181;-80
2022/01/21 00:34:14;;;;;;;16.05;1.80;;;;;;;2.18;100.00;103573.72;5099893;28;20114;-80
2022/01/21 00:36:39;;;;;;;14.27;1.63;;;;;;;2.16;100.00;103566.56;5101694;28;20020;-81
2022/01/21 00:39:05;;;;;;;12.15;2.15;;;;;;;2.17;100.00;103569.28;5101552;28;20027;-81
2022/01/21 00:41:34;;;;;;;14.77;2.20;;;;;;;2.19;100.00;103572.03;5101975;28;20035;-84
2022/01/21 00:44:00;;;;;;;14.88;1.35;;;;;;;2.21;100.00;103575.66;5086184;28;20036;-83
2022/01/21 00:46:25;;;;;;;18.15;1.70;;;;;;;2.24;100.00;103570.78;5086869;28;20063;-81
2022/01/21 00:48:50;;;;;;;17.48;1.73;;;;;;;2.25;100.00;103572.63;5086362;28;20032;-82
2022/01/21 00:51:16;;;;;;;16.80;1.65;;;;;;;2.30;100.00;103579.13;5065597;28;20052;-81
2022/01/21 00:53:41;;;;;;;17.67;2.22;;;;;;;2.35;100.00;103575.31;5089747;28;20020;-80
2022/01/21 00:56:07;;;;;;;9.93;1.42;;;;;;;2.31;100.00;103572.28;5060846;28;20024;-80
2022/01/21 00:58:32;;;;;;;15.50;2.60;;;;;;;2.26;100.00;103582.22;5071584;28;20061;-81
2022/01/21 01:00:58;;;;;;;19.85;2.75;;;;;;;2.25;100.00;103580.41;5068773;28;20038;-80
2022/01/21 01:03:23;;;;;;;14.73;2.60;;;;;;;2.29;100.00;103587.72;5063864;28;20424;-80
2022/01/21 01:05:52;;;;;;;14.30;1.50;;;;;;;2.26;100.00;103579.63;5063768;28;20383;-81
2022/01/21 01:08:19;;;;;;;16.52;1.83;;;;;;;2.25;100.00;103583.00;5078202;28;20042;-79
2022/01/21 01:11:00;;;;;;;12.23;2.10;;;;;;;2.23;100.00;103584.53;5081469;28;20024;-80
2022/01/21 01:21:44;;;;;;;15.82;1.77;;;;;;;2.17;100.00;103589.13;5077817;28;20086;-80
2022/01/21 01:29:23;;;;;;;6.93;1.30;;;;;;;2.12;100.00;103585.22;5080665;28;20109;-79
2022/01/21 01:31:49;;;;;;;15.13;1.45;;;;;;;2.06;100.00;103574.22;5056562;28;20530;-80
2022/01/21 01:34:15;;;;;;;16.13;2.22;;;;;;;2.04;100.00;103576.69;5083734;28;20028;-82
2022/01/21 01:36:44;;;;;;;16.45;2.17;;;;;;;2.01;100.00;103579.88;5081831;28;20028;-82
2022/01/21 01:42:33;;;;;;;12.50;1.88;;;;;;;2.16;100.00;103592.53;5078431;28;20058;-82
2022/01/21 01:50:36;;;;;;;9.30;2.05;;;;;;;2.47;100.00;103590.19;5087051;28;20042;-81
2022/01/21 01:53:05;;;;;;;15.75;1.45;;;;;;;2.45;100.00;103579.66;5079822;28;20516;-80
2022/01/21 01:55:31;;;;;;;16.48;2.13;;;;;;;2.44;100.00;103589.94;5085570;28;20032;-79
2022/01/21 01:57:56;;;;;;;8.75;1.20;;;;;;;2.40;100.00;103580.00;5082675;28;20491;-81
2022/01/21 02:00:22;;;;;;;7.32;1.65;;;;;;;2.35;100.00;103572.69;5087168;28;20087;-80
2022/01/21 02:02:47;;;;;;;15.13;1.70;;;;;;;2.29;100.00;103574.75;5082859;28;20024;-81
2022/01/21 02:05:12;;;;;;;13.70;1.38;;;;;;;2.25;100.00;103574.28;5076061;28;20035;-80
2022/01/21 02:07:38;;;;;;;13.63;1.50;;;;;;;2.19;100.00;103572.03;5084302;28;20024;-80
2022/01/21 02:10:04;;;;;;;13.32;2.05;;;;;;;2.09;100.00;103569.31;5090672;28;20036;-80
2022/01/21 02:12:30;;;;;;;9.95;1.10;;;;;;;2.03;100.00;103569.66;5079368;28;20073;-80
2022/01/21 02:14:55;;;;;;;10.52;1.65;;;;;;;1.98;100.00;103576.06;5081604;28;20039;-81
2022/01/21 02:22:44;;;;;;;10.52;1.00;;;;;;;1.81;100.00;103587.44;5085021;28;20043;-81
2022/01/21 02:25:18;;;;;;;8.15;1.70;;;;;;;1.76;100.00;103581.78;5078906;28;20054;-78
2022/01/21 02:27:50;;;;;;;4.65;1.00;;;;;;;1.72;100.00;103586.56;5081283;28;20020;-80
2022/01/21 02:30:19;;;;;;;4.75;1.05;;;;;;;1.68;100.00;103583.69;5077107;28;20094;-81
2022/01/21 02:32:51;;;;;;;7.25;0.90;;;;;;;1.63;100.00;103574.53;5086764;28;20047;-81
2022/01/21 02:35:18;;;;;;;7.85;1.02;;;;;;;1.63;100.00;103582.31;5089504;28;20063;-81
2022/01/21 02:37:44;;;;;;;7.28;0.82;;;;;;;1.64;100.00;103581.56;5076209;28;20457;-81
2022/01/21 02:40:11;;;;;;;17.92;1.33;;;;;;;1.64;100.00;103572.81;5082354;28;20529;-81
2022/01/21 02:42:37;;;;;;;12.48;1.33;;;;;;;1.68;100.00;103581.09;5078466;28;20392;-81
2022/01/21 02:45:05;;;;;;;9.02;1.42;;;;;;;1.72;100.00;103582.28;5079358;28;20028;-77
2022/01/21 02:47:31;;;;;;;8.00;1.38;;;;;;;1.79;100.00;103576.00;5075477;28;20021;-81
2022/01/21 02:49:56;;;;;;;21.80;2.40;;;;;;;1.85;100.00;103576.59;5079014;28;20024;-82
2022/01/21 02:52:25;;;;;;;8.98;0.98;;;;;;;2.02;100.00;103578.19;5076904;28;20020;-81
2022/01/21 02:54:51;;;;;;;19.10;1.65;;;;;;;2.18;100.00;103575.38;5076258;28;20028;-81
2022/01/21 02:57:16;;;;;;;5.95;1.38;;;;;;;2.27;100.00;103576.25;5076660;28;20078;-80
2022/01/21 02:59:42;;;;;;;16.25;1.65;;;;;;;2.35;100.00;103562.31;5077634;28;20395;-79
2022/01/21 03:02:07;;;;;;;9.38;0.90;;;;;;;2.36;100.00;103564.16;5085442;28;20128;-81
2022/01/21 03:06:58;;;;;;;6.38;1.10;;;;;;;2.27;100.00;103550.28;5088639;28;20111;-82
2022/01/21 03:09:23;;;;;;;10.52;1.58;;;;;;;2.25;100.00;103546.66;5078454;28;20040;-81
2022/01/21 03:11:49;;;;;;;9.27;1.75;;;;;;;2.21;100.00;103560.06;5085159;28;20115;-80
2022/01/21 03:14:14;;;;;;;10.02;1.10;;;;;;;2.18;100.00;103565.00;5090788;28;20385;-80
2022/01/21 03:16:39;;;;;;;4.32;1.10;;;;;;;2.15;100.00;103562.13;5084791;28;20377;-80
2022/01/21 03:19:05;;;;;;;4.45;2.08;;;;;;;2.10;100.00;103565.94;5081400;28;20039;-79
2022/01/21 03:21:30;;;;;;;12.68;1.13;;;;;;;2.05;100.00;103568.13;5077026;28;20501;-80
2022/01/21 03:23:56;;;;;;;9.30;1.05;;;;;;;2.07;100.00;103570.88;5078343;28;20054;-80
2022/01/21 03:26:24;;;;;;;14.13;1.10;;;;;;;2.04;100.00;103575.78;5091153;28;20744;-80
2022/01/21 03:28:53;;;;;;;17.70;1.00;;;;;;;1.97;100.00;103576.88;5086116;28;20364;-81
2022/01/21 03:31:19;;;;;;;10.27;1.95;;;;;;;1.91;100.00;103571.06;5078484;28;20385;-79
2022/01/21 03:33:45;;;;;;;8.00;1.02;;;;;;;1.84;100.00;103566.97;5082588;28;20078;-79
2022/01/21 03:36:11;;;;;;;8.20;0.88;;;;;;;1.84;100.00;103572.16;5084621;28;20103;-80
2022/01/21 03:38:37;;;;;;;6.50;1.30;;;;;;;1.85;100.00;103571.41;5087680;28;20407;-80
2022/01/21 03:41:03;;;;;;;9.18;0.77;;;;;;;1.80;100.00;103568.34;5077288;28;20032;-79
2022/01/21 03:43:29;;;;;;;8.40;1.00;;;;;;;1.77;100.00;103564.56;5092296;28;20539;-81
2022/01/21 03:45:54;;;;;;;10.10;1.88;;;;;;;1.80;100.00;103570.03;5092549;28;20435;-81
2022/01/21 03:48:20;;;;;;;11.43;1.38;;;;;;;1.83;100.00;103571.25;5098297;28;20032;-80
2022/01/21 03:50:46;;;;;;;5.68;0.98;;;;;;;1.93;100.00;103580.84;5100298;28;20102;-80
2022/01/21 03:53:11;;;;;;;8.23;1.13;;;;;;;2.04;100.00;103581.88;5080940;28;20107;-81
2022/01/21 03:55:37;;;;;;;22.42;2.45;;;;;;;2.10;100.00;103589.31;5108443;28;20221;-81
2022/01/21 03:58:05;;;;;;;6.80;0.93;;;;;;;2.10;100.00;103589.31;5097039;28;20039;-80
2022/01/21 04:00:36;;;;;;;17.58;1.25;;;;;;;2.10;100.00;103597.13;5103365;28;20479;-80
2022/01/21 04:03:03;;;;;;;17.88;1.42;;;;;;;2.06;100.00;103601.09;5088093;28;20383;-80
2022/01/21 04:05:29;;;;;;;9.25;1.17;;;;;;;2.03;100.00;103595.63;5082412;28;20447;-79
2022/01/21 04:07:55;;;;;;;13.00;1.38;;;;;;;2.01;100.00;103589.38;5104220;28;20491;-81
2022/01/21 04:10:20;;;;;;;10.95;1.20;;;;;;;1.97;100.00;103589.84;5078569;28;20032;-80
2022/01/21 04:12:46;;;;;;;7.13;0.88;;;;;;;1.94;100.00;103589.53;5098864;28;20034;-81
2022/01/21 04:15:12;;;;;;;14.38;1.27;;;;;;;1.88;100.00;103594.16;5099183;28;20497;-79
2022/01/21 04:17:38;;;;;;;9.32;1.52;;;;;;;1.84;100.00;103590.34;5099890;28;20024;-81
2022/01/21 04:20:05;;;;;;;14.35;1.33;;;;;;;1.81;100.00;103597.84;5107828;28;20043;-81
2022/01/21 04:22:31;;;;;;;6.90;1.10;;;;;;;1.79;100.00;103589.91;5082248;28;20111;-80
2022/01/21 04:24:56;;;;;;;10.98;1.73;;;;;;;1.79;100.00;103591.56;5098751;28;20572;-81
2022/01/21 04:27:22;;;;;;;14.43;1.40;;;;;;;1.77;100.00;103590.53;5097627;28;20036;-81
2022/01/21 04:29:47;;;;;;;18.45;1.30;;;;;;;1.77;100.00;103590.53;5102363;28;20039;-81
2022/01/21 04:32:13;;;;;;;12.95;1.50;;;;;;;1.75;100.00;103592.97;5091449;28;20024;-81
2022/01/21 04:34:39;;;;;;;7.90;1.10;;;;;;;1.69;100.00;103587.16;5089383;28;20421;-81
2022/01/21 04:37:08;;;;;;;11.43;0.95;;;;;;;1.66;100.00;103586.88;5090206;28;20035;-81
2022/01/21 04:39:39;;;;;;;13.02;2.08;;;;;;;1.60;100.00;103587.22;5094474;28;20023;-81
2022/01/21 04:47:28;;;;;;;8.88;1.17;;;;;;;1.49;100.00;103599.13;5101031;28;20043;-81
2022/01/21 04:49:54;;;;;;;11.05;1.60;;;;;;;1.49;100.00;103598.19;5109218;28;20019;-81
2022/01/21 04:52:20;;;;;;;13.13;1.70;;;;;;;1.50;100.00;103590.56;5103292;28;20024;-81
2022/01/21 04:54:46;;;;;;;9.95;1.88;;;;;;;1.49;100.00;103588.75;5100070;28;20035;-81
2022/01/21 04:57:11;;;;;;;8.90;1.40;;;;;;;1.49;100.00;103595.59;5105693;28;20072;-81
2022/01/21 04:59:38;;;;;;;11.82;0.98;;;;;;;1.45;100.00;103591.81;5097353;28;20103;-81
2022/01/21 05:02:06;;;;;;;6.15;1.52;;;;;;;1.43;100.00;103593.31;5108898;28;20040;-81
2022/01/21 05:04:31;;;;;;;7.40;0.85;;;;;;;1.42;100.00;103595.78;5097369;28;20054;-80
2022/01/21 05:06:57;;;;;;;9.10;0.88;;;;;;;1.41;100.00;103593.94;5105825;28;20035;-78
2022/01/21 05:09:29;;;;;;;9.85;1.17;;;;;;;1.42;100.00;103590.59;5098253;28;20056;-80
2022/01/21 05:11:56;;;;;;;12.75;1.48;;;;;;;1.40;100.00;103585.25;5113033;28;20023;-82
2022/01/21 05:14:35;;;;;;;4.80;1.10;;;;;;;1.37;100.00;103579.78;5082204;28;20114;-80
2022/01/21 05:17:04;;;;;;;9.05;1.08;;;;;;;1.39;100.00;103579.91;5081315;28;20395;-80
2022/01/21 05:19:29;;;;;;;12.43;1.33;;;;;;;1.34;100.00;103580.38;5089457;28;20073;-78
2022/01/21 05:21:55;;;;;;;3.58;1.30;;;;;;;1.35;100.00;103582.19;5092332;28;21774;-81
2022/01/21 05:24:21;;;;;;;10.50;1.13;;;;;;;1.46;100.00;103582.34;5084218;28;20036;-80
2022/01/21 05:26:56;;;;;;;7.10;0.82;;;;;;;1.47;100.00;103581.59;5083840;28;20027;-79
2022/01/21 05:29:25;;;;;;;4.68;1.52;;;;;;;1.50;100.00;103576.69;5102075;28;20046;-81
2022/01/21 05:31:50;;;;;;;6.47;0.80;;;;;;;1.57;100.00;103576.50;5095192;28;20101;-82
2022/01/21 05:34:16;;;;;;;11.18;1.08;;;;;;;1.65;100.00;103580.75;5095376;28;20036;-80
2022/01/21 05:36:42;;;;;;;16.33;2.00;;;;;;;1.92;100.00;103586.78;5083581;28;20095;-80
2022/01/21 05:39:08;;;;;;;19.52;1.70;;;;;;;2.12;100.00;103593.91;5110242;28;20496;-81
2022/01/21 05:41:34;;;;;;;11.43;1.15;;;;;;;2.21;100.00;103580.88;5082425;28;20054;-80
2022/01/21 05:44:07;;;;;;;9.45;1.35;;;;;;;2.39;100.00;103578.19;5099831;28;20028;-82
2022/01/21 05:49:17;;;;;;;11.18;2.00;;;;;;;2.47;100.00;103572.00;5106001;28;20034;-81
2022/01/21 05:51:43;;;;;;;12.82;1.40;;;;;;;2.38;100.00;103569.47;5079372;28;20087;-80
2022/01/21 05:54:09;;;;;;;8.40;0.98;;;;;;;2.31;100.00;103569.69;5100893;28;20038;-81
2022/01/21 05:56:35;;;;;;;11.75;1.95;;;;;;;2.25;100.00;103563.88;5081817;28;20023;-80
2022/01/21 05:59:00;;;;;;;11.40;1.15;;;;;;;2.16;100.00;103576.94;5098133;28;20028;-80
2022/01/21 06:01:29;;;;;;;13.05;1.48;;;;;;;2.08;100.00;103588.28;5085331;28;20019;-80
2022/01/21 06:03:55;;;;;;;11.57;1.02;;;;;;;2.01;100.00;103584.19;5092526;28;20027;-81
2022/01/21 06:06:20;;;;;;;11.60;1.30;;;;;;;1.94;100.00;103590.47;5103797;28;20475;-82
2022/01/21 06:08:46;;;;;;;8.00;1.40;;;;;;;1.92;100.00;103604.06;5077843;28;20389;-80
2022/01/21 06:11:11;;;;;;;13.63;1.77;;;;;;;1.93;100.00;103596.44;5082892;28;20024;-80
2022/01/21 06:13:37;;;;;;;11.13;2.55;;;;;;;1.98;100.00;103592.59;5088552;28;20102;-81
2022/01/21 06:16:03;;;;;;;9.00;1.08;;;;;;;2.08;100.00;103603.88;5101969;28;20482;-81
2022/01/21 06:18:29;;;;;;;8.82;1.65;;;;;;;2.22;100.00;103610.38;5099869;28;20164;-81
2022/01/21 06:20:54;;;;;;;13.55;1.17;;;;;;;2.29;100.00;103605.91;5099238;28;20060;-81
2022/01/21 06:23:19;;;;;;;8.93;1.60;;;;;;;2.34;100.00;103601.13;5079915;28;20043;-80
2022/01/21 06:25:45;;;;;;;10.90;1.25;;;;;;;2.38;100.00;103615.34;5096966;28;20031;-77
2022/01/21 06:28:11;;;;;;;18.17;2.28;;;;;;;2.36;100.00;103603.13;5082782;28;20107;-80
2022/01/21 06:30:37;;;;;;;11.60;1.48;;;;;;;2.36;100.00;103607.38;5096066;28;20077;-80
2022/01/21 06:33:02;;;;;;;16.33;1.42;;;;;;;2.30;100.00;103610.31;5079661;28;20028;-81
2022/01/21 06:35:28;;;;;;;19.60;1.48;;;;;;;2.27;100.00;103607.44;5107501;27;20031;-79
2022/01/21 06:37:53;;;;;;;11.68;1.60;;;;;;;2.22;100.00;103621.66;5104007;27;20031;-80
2022/01/21 06:40:20;;;;;;;11.10;1.40;;;;;;;2.18;100.00;103622.16;5098576;28;20028;-81
2022/01/21 06:42:49;;;;;;;13.63;1.75;;;;;;;2.14;100.00;103620.03;5088570;28;20034;-81
2022/01/21 06:45:16;;;;;;;18.98;1.83;;;;;;;2.12;100.00;103624.16;5086059;28;20023;-80
2022/01/21 06:47:43;;;;;;;8.10;1.48;;;;;;;2.09;100.00;103631.66;5084164;28;20039;-81
2022/01/21 06:50:09;;;;;;;17.17;2.30;;;;;;;2.08;100.00;103624.66;5077061;28;20375;-81
2022/01/21 06:52:35;;;;;;;18.85;4.30;;;;;;;2.05;100.00;103616.53;5083005;28;20027;-83
2022/01/21 06:55:00;;;;;;;14.27;3.97;;;;;;;1.97;100.00;103621.91;5086393;28;20024;-83
2022/01/21 06:57:27;;;;;;;20.48;4.65;;;;;;;1.89;100.00;103611.56;5082218;28;20019;-83
2022/01/21 06:59:52;;;;;;;19.50;3.28;;;;;;;1.81;100.00;103614.31;5082978;28;20016;-82
2022/01/21 07:02:19;;;;;;;5.68;2.03;;;;;;;1.75;100.00;103612.81;5103029;28;20046;-82
2022/01/21 07:04:49;;;;;;;18.88;2.88;;;;;;;1.68;100.00;103606.09;5084674;28;20032;-78
2022/01/21 07:07:16;;;;;;;24.30;3.25;;;;;;;1.63;100.00;103600.47;5082509;28;20036;-81
2022/01/21 07:09:42;;;;;;;18.23;2.53;;;;;;;1.59;100.00;103606.13;5092218;28;20032;-80
2022/01/21 07:12:08;;;;;;;16.23;2.22;;;;;;;1.56;100.00;103608.44;5082587;28;20196;-79
2022/01/21 07:14:34;;;;;;;14.27;2.30;;;;;;;1.54;100.00;103612.53;5093917;28;20051;-80
2022/01/21 07:16:59;;;;;;;12.35;2.10;;;;;;;1.54;100.00;103611.66;5099292;28;20019;-76
2022/01/21 07:19:25;;;;;;;10.85;2.63;;;;;;;1.55;100.00;103624.75;5107014;28;20055;-76
2022/01/21 07:21:50;;;;;;;16.52;2.08;;;;;;;1.57;100.00;103618.03;5103647;28;20082;-75
2022/01/21 07:24:15;;;;;;;18.08;1.90;;;;;;;1.62;100.00;103624.59;5079073;28;20028;-76
2022/01/21 07:26:41;;;;;;;33.22;2.65;;;;;;;1.65;100.00;103626.56;5105057;28;20483;-76
2022/01/21 07:29:06;;;;;;;10.05;2.38;;;;;;;1.72;100.00;103631.59;5075814;28;20024;-76
2022/01/21 07:31:32;;;;;;;22.75;2.10;;;;;;;1.77;100.00;103622.56;5093749;28;20081;-75
2022/01/21 07:33:58;;;;;;;16.60;2.55;;;;;;;1.79;100.00;103636.63;5081650;28;20024;-76
2022/01/21 07:36:24;;;;;;;34.97;2.30;;;;;;;1.83;100.00;103637.81;5105090;28;20020;-75
2022/01/21 07:38:49;;;;;;;18.35;2.20;;;;;;;1.86;100.00;103638.16;5100317;28;20032;-76
2022/01/21 07:41:14;;;;;;;16.20;1.67;;;;;;;1.90;100.00;103640.28;5075563;28;20084;-75
2022/01/21 07:43:40;;;;;;;27.10;2.15;;;;;;;1.93;100.00;103630.19;5102142;28;20051;-74
2022/01/21 07:46:05;;;;;;;15.43;3.25;;;;;;;2.01;100.00;103624.03;5080080;28;20210;-75
2022/01/21 07:48:31;;;;;;;22.40;2.10;;;;;;;2.11;100.00;103635.31;5093177;28;20028;-75
2022/01/21 07:50:56;;;;;;;17.65;1.90;;;;;;;2.17;100.00;103641.09;5111020;28;20020;-75
2022/01/21 07:53:22;;;;;;;22.13;2.97;;;;;;;2.34;100.00;103630.63;5083591;28;20024;-75
2022/01/21 07:55:50;;;;;;;18.92;1.95;;;;;;;2.54;100.00;103636.81;5101065;28;20059;-74
2022/01/21 07:58:19;;;;;;;18.00;2.20;;;;;;;2.74;100.00;103637.75;5078143;28;20034;-76
2022/01/21 08:00:44;;;;;;;16.00;2.78;;;;;;;2.98;100.00;103634.84;5082276;28;20443;-76
2022/01/21 08:03:10;;;;;;;11.10;2.28;;;;;;;3.26;100.00;103627.00;5099507;28;20032;-75
2022/01/21 08:05:35;;;;;;;22.95;1.92;;;;;;;3.43;100.00;103625.00;5088748;28;20114;-75
2022/01/21 08:08:02;;;;;;;23.00;2.42;;;;;;;3.58;100.00;103626.41;5108976;28;20028;-74
2022/01/21 08:10:27;;;;;;;13.50;1.58;;;;;;;3.67;100.00;103635.00;5087468;27;20027;-74
2022/01/21 08:12:53;;;;;;;12.10;1.40;;;;;;;3.74;100.00;103625.16;5113164;27;20047;-74
2022/01/21 08:15:18;;;;;;;12.80;1.13;;;;;;;3.76;100.00;103634.00;5090853;28;20114;-75
2022/01/21 08:17:44;;;;;;;20.23;2.55;;;;;;;3.80;100.00;103633.50;5091739;28;20024;-75
2022/01/21 08:20:10;;;;;;;16.75;1.65;;;;;;;3.80;100.00;103639.66;5097773;27;20054;-75
2022/01/21 08:22:35;;;;;;;9.07;2.78;;;;;;;3.80;100.00;103636.13;5097582;27;20027;-75
2022/01/21 08:25:01;;;;;;;9.45;1.77;;;;;;;3.81;100.00;103633.69;5096689;27;20043;-75
2022/01/21 08:27:26;;;;;;;14.27;1.65;;;;;;;3.81;100.00;103645.75;5122564;27;20446;-75
2022/01/21 08:29:52;;;;;;;14.70;2.97;;;;;;;3.83;100.00;103646.81;5116757;27;20028;-76
2022/01/21 08:32:20;;;;;;;13.60;1.77;;;;;;;3.91;100.00;103640.59;5106063;27;20047;-75
2022/01/21 08:34:45;;;;;;;15.75;2.08;;;;;;;3.98;100.00;103642.97;5098581;27;20020;-74
2022/01/21 08:37:10;;;;;;;17.08;2.47;;;;;;;4.00;100.00;103644.03;5105311;27;20026;-77
2022/01/21 08:39:36;;;;;;;20.88;2.13;;;;;;;4.00;100.00;103637.88;5096666;28;20058;-76
2022/01/21 08:42:03;;;;;;;11.73;2.33;;;;;;;3.98;100.00;103639.47;5113466;27;20028;-75
2022/01/21 08:44:28;;;;;;;10.68;1.92;;;;;;;4.05;100.00;103634.00;5106961;27;20032;-76
2022/01/21 08:46:54;;;;;;;8.50;2.35;;;;;;;4.15;100.00;103630.50;5079194;28;20085;-75
2022/01/21 08:49:21;;;;;;;16.65;2.40;;;;;;;4.27;100.00;103623.75;5095366;28;20028;-75
2022/01/21 08:51:52;;;;;;;24.25;2.03;;;;;;;4.43;100.00;103630.34;5081709;28;20375;-75
2022/01/21 08:54:19;;;;;;;15.65;1.42;;;;;;;4.57;100.00;103621.97;5097529;28;20036;-72
2022/01/21 08:56:46;;;;;;;15.80;1.92;;;;;;;4.66;100.00;103625.38;5071270;28;20065;-80
2022/01/21 08:59:11;;;;;;;11.55;1.75;;;;;;;4.77;100.00;103628.00;5087406;28;20023;-79
2022/01/21 09:01:37;;;;;;;18.00;2.67;;;;;;;4.84;100.00;103630.34;5100958;28;20095;-78
2022/01/21 09:04:03;;;;;;;8.25;1.70;;;;;;;4.90;100.00;103625.66;5101066;28;20043;-74
2022/01/21 09:06:29;;;;;;;14.77;2.35;;;;;;;4.94;100.00;103627.75;5082330;28;20491;-75
2022/01/21 09:08:59;;;;;;;11.57;2.58;;;;;;;5.00;100.00;103623.03;5064453;28;20388;-74
2022/01/21 09:11:25;;;;;;;24.35;2.13;;;;;;;5.05;100.00;103620.84;5093880;28;20104;-74
2022/01/21 09:13:51;;;;;;;14.68;1.50;;;;;;;5.07;100.00;103614.03;5077675;28;20038;-77
2022/01/21 09:16:18;;;;;;;19.48;2.10;;;;;;;5.12;100.00;103619.66;5063456;28;20035;-79
2022/01/21 09:18:52;;;;;;;20.48;2.00;;;;;;;5.16;100.00;103619.13;5062437;28;20399;-77
2022/01/21 09:21:20;;;;;;;15.98;1.90;;;;;;;5.22;100.00;103617.00;5090104;28;20055;-76
2022/01/21 09:23:48;;;;;;;17.23;2.35;;;;;;;5.28;100.00;103617.53;5069648;28;20075;-76
2022/01/21 09:26:15;;;;;;;12.73;1.60;;;;;;;5.34;100.00;103614.50;5092450;28;20123;-74
2022/01/21 09:28:41;;;;;;;8.70;1.55;;;;;;;5.40;100.00;103615.94;5080125;28;20025;-73
2022/01/21 09:31:06;;;;;;;17.45;1.92;;;;;;;5.47;100.00;103613.84;5080714;28;20034;-74
2022/01/21 09:33:32;;;;;;;9.45;1.77;;;;;;;5.53;100.00;103612.59;5059145;28;20032;-74
2022/01/21 09:35:58;;;;;;;10.02;1.42;;;;;;;5.63;100.00;103616.91;5081353;28;20441;-75
2022/01/21 09:38:24;;;;;;;11.55;1.15;;;;;;;5.70;100.00;103627.06;5063832;28;20028;-74
2022/01/21 09:40:51;;;;;;;6.93;1.20;;;;;;;5.74;100.00;103629.13;5060620;28;20513;-74
2022/01/21 09:43:17;;;;;;;5.13;0.82;;;;;;;5.74;100.00;103623.91;5080311;28;20436;-74
2022/01/21 09:45:46;;;;;;;10.60;0.85;;;;;;;5.69;100.00;103624.31;5068570;28;20063;-74
2022/01/21 09:48:20;;;;;;;7.93;1.10;;;;;;;5.70;100.00;103639.22;5077490;28;20492;-75
2022/01/21 09:50:50;;;;;;;15.65;1.20;;;;;;;5.69;100.00;103627.84;5061998;28;20083;-76
2022/01/21 09:53:17;;;;;;;11.35;1.10;;;;;;;5.80;100.00;103636.56;5087213;28;20024;-74
2022/01/21 09:55:43;;;;;;;5.72;0.90;;;;;;;5.88;100.00;103642.41;5065777;28;20032;-74
2022/01/21 09:58:09;;;;;;;15.40;1.30;;;;;;;5.92;100.00;103641.88;5063384;28;20097;-74
2022/01/21 10:00:34;;;;;;;9.00;1.63;;;;;;;5.96;100.00;103640.44;5088054;28;20028;-74
2022/01/21 10:03:03;;;;;;;9.45;1.40;;;;;;;5.99;100.00;103641.59;5097309;28;20020;-74
2022/01/21 10:05:29;;;;;;;10.15;1.48;;;;;;;6.02;100.00;103641.88;5078818;28;20039;-74
2022/01/21 10:07:55;;;;;;;11.60;1.50;;;;;;;6.04;100.00;103655.97;5083294;28;20032;-74
2022/01/21 10:10:21;;;;;;;13.88;1.52;;;;;;;6.02;100.00;103647.09;5083480;28;20024;-74
2022/01/21 10:12:48;;;;;;;18.05;2.08;;;;;;;6.10;100.00;103654.63;5079477;28;20027;-74
2022/01/21 10:15:15;;;;;;;8.60;1.40;;;;;;;6.33;100.00;103652.13;5094469;28;20172;-75
2022/01/21 10:18:06;;;;;;;14.70;1.60;;;;;;;6.60;100.00;103660.34;5089147;28;20100;-75
2022/01/21 10:20:32;;;;;;;11.00;1.75;;;;;;;6.75;100.00;103651.09;5071747;28;20028;-73
2022/01/21 10:23:03;;;;;;;15.70;1.75;;;;;;;6.82;100.00;103651.56;5099061;28;20035;-74
2022/01/21 10:25:30;;;;;;;18.05;1.58;;;;;;;6.80;100.00;103653.16;5084325;28;20027;-73
2022/01/21 10:28:19;;;;;;;13.35;1.70;;;;;;;6.70;100.00;103654.13;5080890;28;20036;-75
2022/01/21 10:30:48;;;;;;;10.57;1.10;;;;;;;6.67;100.00;103654.78;5098782;28;20044;-74
2022/01/21 10:33:21;;;;;;;24.10;1.83;;;;;;;6.66;100.00;103652.06;5083769;28;20118;-74
2022/01/21 10:35:49;;;;;;;11.50;1.50;;;;;;;6.61;100.00;103646.47;5091765;28;20360;-73
2022/01/21 10:38:28;;;;;;;10.23;1.05;;;;;;;6.58;100.00;103643.63;5081085;28;20020;-73
2022/01/21 10:41:05;;;;;;;18.02;1.55;;;;;;;6.58;100.00;103636.69;5075303;28;20024;-74
2022/01/21 10:43:31;;;;;;;10.60;1.48;;;;;;;6.58;100.00;103630.56;5060280;28;20028;-75
2022/01/21 10:45:58;;;;;;;10.50;1.13;;;;;;;6.58;100.00;103641.00;5073848;28;20043;-74
2022/01/21 10:48:27;;;;;;;14.77;1.63;;;;;;;6.61;100.00;103646.47;5080163;28;20063;-75
2022/01/21 10:51:25;;;;;;;15.70;1.50;;;;;;;6.64;100.00;103649.31;5100619;27;20118;-75
2022/01/21 10:53:52;;;;;;;11.43;1.58;;;;;;;6.70;100.00;103647.19;5098253;28;20016;-74
2022/01/21 10:56:19;;;;;;;16.35;2.60;;;;;;;6.78;100.00;103639.03;5093124;28;20107;-75
2022/01/21 10:58:54;;;;;;;23.48;2.22;;;;;;;6.90;100.00;103643.50;5095095;28;20513;-73
2022/01/21 11:01:27;;;;;;;12.13;1.75;;;;;;;7.01;100.00;103633.88;5095618;28;20463;-74
2022/01/21 11:04:01;;;;;;;12.90;1.70;;;;;;;7.11;100.00;103634.53;5083680;28;20028;-75
2022/01/21 11:06:30;;;;;;;;;;;;;;;7.12;100.00;103631.13;5093632;28;20452;-75
2022/01/21 11:09:19;;;;;;;13.20;1.50;;;;;;;7.12;100.00;103620.66;5080759;28;20003;-75
2022/01/21 11:12:06;;;;;;;15.68;1.55;;;;;;;7.19;100.00;103633.41;5102342;28;20027;-75
2022/01/21 11:14:31;;;;;;;8.80;2.33;;;;;;;7.40;100.00;103639.34;5077069;28;20061;-76
2022/01/21 11:17:08;;;;;;;12.02;1.65;;;;;;;7.84;100.00;103630.31;5098579;28;20515;-77
2022/01/21 11:19:35;;;;;;;10.50;1.75;;;;;;;8.62;97.39;103619.28;5100810;28;20030;-74
2022/01/21 11:22:04;;;;;;;14.85;2.28;;;;;;;8.86;94.08;103614.81;5098555;28;20463;-76
2022/01/21 11:24:30;;;;;;;17.25;1.58;;;;;;;8.72;93.22;103616.50;5101648;27;20458;-75
2022/01/21 11:27:13;;;;;;;13.95;1.88;;;;;;;8.46;93.84;103621.63;5110248;27;20074;-75
2022/01/21 11:29:39;;;;;;;10.63;1.55;;;;;;;8.24;94.40;103622.72;5105131;27;20035;-75
2022/01/21 11:32:06;;;;;;;14.77;1.88;;;;;;;8.05;95.42;103626.63;5109005;27;20558;-80
2022/01/21 11:34:32;;;;;;;16.35;1.70;;;;;;;7.94;95.61;103632.81;5099965;27;20024;-79
2022/01/21 11:36:59;;;;;;;12.32;1.90;;;;;;;7.67;96.51;103634.34;5087598;27;20036;-80
2022/01/21 11:39:25;;;;;;;19.42;2.28;;;;;;;7.54;97.09;103637.75;5111078;27;20016;-80
2022/01/21 11:41:56;;;;;;;17.25;2.28;;;;;;;7.37;98.53;103640.03;5094783;27;20027;-79
2022/01/21 11:44:25;;;;;;;14.27;2.42;;;;;;;7.22;98.85;103629.31;5114042;27;20025;-79
2022/01/21 11:47:37;;;;;;;11.95;1.90;;;;;;;7.16;99.92;103634.13;5107258;27;20050;-75
2022/01/21 11:49:58;;;;;;;13.32;2.33;;;;;;;7.00;100.00;103621.56;5102480;27;20028;-75
2022/01/21 11:52:24;;;;;;;18.13;2.22;;;;;;;7.03;100.00;103618.25;5107052;27;20081;-80
2022/01/21 11:54:50;;;;;;;20.15;2.83;;;;;;;7.00;100.00;103613.72;5101348;27;20027;-75
2022/01/21 11:57:26;;;;;;;23.02;2.67;;;;;;;6.94;100.00;103617.56;5095488;27;20019;-76
2022/01/21 11:59:59;;;;;;;13.75;2.08;;;;;;;6.84;100.00;103606.38;5098134;27;20032;-76
2022/01/21 12:02:28;;;;;;;21.37;2.80;;;;;;;6.83;100.00;103606.28;5106817;27;20099;-76
2022/01/21 12:05:02;;;;;;;18.63;3.47;;;;;;;6.82;100.00;103615.81;5101115;27;20114;-77
2022/01/21 12:07:34;;;;;;;14.93;2.35;;;;;;;6.83;100.00;103616.75;5083023;28;20028;-76
2022/01/21 12:10:02;;;;;;;18.30;2.47;;;;;;;6.79;100.00;103610.34;5082507;28;20077;-75